Date,TemperatureHighF,TemperatureAvgF,TemperatureLowF,DewpointHighF,DewpointAvgF,DewpointLowF,HumidityHigh,HumidityAvg,HumidityLow,PressureMaxIn,PressureMinIn,WindSpeedMaxMPH,WindSpeedAvgMPH,GustSpeedMaxMPH,PrecipitationSumIn
2013-1-1,28.6,21.8,16.5,18.6,14.9,10.1,87,75,59,30.17,30.05,10,1,10,0.00
2013-1-2,25.9,23.0,17.7,22.9,19.0,12.0,89,85,77,30.16,30.08,14,1,15,0.00
2013-1-3,28.3,24.3,17.6,27.5,20.9,12.2,100,87,79,30.16,30.03,12,2,15,0.00
2013-1-4,33.2,28.6,25.2,27.5,24.5,21.0,92,84,77,30.16,30.00,18,3,21,0.00
2013-1-5,35.9,28.3,15.6,32.1,25.6,13.9,97,90,72,30.22,29.94,17,3,18,0.01
2013-1-6,34.2,32.8,28.5,33.7,30.9,24.8,98,93,84,30.26,29.83,15,2,16,0.04
2013-1-7,35.5,30.3,26.2,26.4,23.6,19.5,92,77,52,30.30,30.08,20,6,20,0.00
2013-1-8,38.0,31.1,25.2,31.0,26.4,22.2,91,83,72,30.19,30.06,15,3,15,0.01
2013-1-9,45.0,37.8,28.2,35.0,30.7,24.8,89,76,56,30.40,29.95,22,4,26,0.00
2013-1-10,42.9,32.5,22.2,33.2,27.5,21.0,100,83,60,30.53,30.06,12,1,12,0.16
2013-1-11,51.2,43.6,34.9,51.2,43.0,33.2,100,98,93,30.07,29.68,18,3,19,0.66
2013-1-12,57.2,47.5,37.0,50.6,42.4,32.7,97,83,64,29.91,29.72,21,4,24,0.02
2013-1-13,36.9,31.4,24.0,34.5,30.1,20.0,98,95,84,30.08,29.79,16,1,16,0.34
2013-1-14,26.4,20.6,13.8,20.4,16.8,11.9,93,85,73,30.42,30.07,15,1,16,0.00
2013-1-15,30.6,21.5,14.2,23.2,17.5,12.6,94,85,67,30.42,30.14,10,1,10,0.01
2013-1-16,35.6,27.4,17.2,32.0,23.4,15.0,100,85,62,30.14,29.76,28,3,28,0.00
2013-1-17,32.9,25.8,17.8,30.0,19.2,8.6,89,76,62,30.33,29.96,11,1,15,0.00
2013-1-18,38.6,25.4,10.8,30.3,18.5,7.7,91,76,60,30.40,29.87,25,5,26,0.00
2013-1-19,44.0,40.8,37.7,37.4,33.7,23.2,84,76,54,29.87,29.52,23,5,27,0.00
2013-1-20,38.7,17.5,13.9,24.1,10.4,6.9,85,74,54,30.19,29.54,22,2,29,0.00
2013-1-21,15.2,10.1,0.8,12.0,5.3,-4.7,88,81,64,30.17,30.01,14,1,14,0.00
2013-1-22,12.0,2.3,-6.3,3.5,-3.0,-10.0,89,78,61,30.33,30.17,11,0,11,0.00
2013-1-23,18.4,9.9,-2.4,14.6,6.7,-5.3,90,87,82,30.33,30.08,11,1,13,0.00
2013-1-24,19.6,10.0,1.3,7.0,3.1,-2.0,90,75,47,30.64,30.21,9,1,11,0.00
2013-1-25,21.0,16.7,12.1,19.4,12.5,4.5,100,83,70,30.49,29.98,14,2,14,0.00
2013-1-26,30.4,23.0,17.6,20.4,18.3,15.6,94,82,63,30.42,30.06,9,0,11,0.07
2013-1-27,29.9,24.9,17.9,28.8,20.9,16.0,96,85,69,30.43,30.04,11,2,12,0.00
2013-1-28,42.3,34.9,29.8,42.0,34.3,28.8,100,98,96,30.03,29.81,10,1,12,0.64
2013-1-29,55.4,45.2,30.9,55.3,44.9,30.0,100,99,97,29.96,29.34,19,4,19,1.08
2013-1-30,53.1,39.9,23.9,52.8,39.5,21.7,100,98,90,29.36,29.05,16,1,18,0.58
2013-1-31,24.0,19.0,13.2,21.8,16.1,10.9,92,88,76,29.91,29.33,15,1,15,0.00